createdAt,value
2022-12-03T00:02:49.840Z,19.13
2022-12-03T00:07:52.769Z,20.88
2022-12-03T00:12:56.948Z,20.38
2022-12-03T00:17:59.708Z,21.48
2022-12-03T00:23:03.108Z,21.92
2022-12-03T00:28:07.617Z,21.52
2022-12-03T00:33:10.409Z,22.33
2022-12-03T00:38:13.180Z,20.20
2022-12-03T00:43:17.374Z,19.85
2022-12-03T00:48:20.188Z,23.35
2022-12-03T00:53:23.000Z,22.92
2022-12-03T00:58:27.100Z,21.77
2022-12-03T01:03:30.012Z,26.15
2022-12-03T01:08:32.815Z,24.95
2022-12-03T01:13:36.952Z,26.33
2022-12-03T01:18:39.699Z,25.02
2022-12-03T01:23:42.453Z,24.42
2022-12-03T01:28:46.559Z,26.02
2022-12-03T01:33:49.371Z,27.67
2022-12-03T01:38:52.163Z,26.25
2022-12-03T01:43:57.939Z,25.10
2022-12-03T01:49:00.715Z,28.85
2022-12-03T01:54:05.929Z,26.92
2022-12-03T01:59:10.572Z,28.02
2022-12-03T02:04:15.500Z,28.25
2022-12-03T02:09:18.339Z,28.08
2022-12-03T02:14:23.073Z,27.58
2022-12-03T02:19:29.734Z,26.10
2022-12-03T02:24:40.934Z,26.90
2022-12-03T02:29:45.396Z,23.65
2022-12-03T02:34:48.163Z,25.17
2022-12-03T02:39:55.226Z,24.70
2022-12-03T02:45:05.112Z,23.65
2022-12-03T02:50:10.639Z,22.15
2022-12-03T02:55:15.652Z,22.73
2022-12-03T03:00:22.969Z,22.20
2022-12-03T03:05:26.284Z,22.67
2022-12-03T03:10:30.591Z,23.80
2022-12-03T03:15:36.768Z,22.05
2022-12-03T03:20:40.818Z,21.60
2022-12-03T03:25:45.915Z,22.45
2022-12-03T03:30:50.046Z,23.48
2022-12-03T03:35:53.331Z,20.98
2022-12-03T03:40:57.382Z,22.05
2022-12-03T03:46:04.823Z,18.45
2022-12-03T03:51:09.793Z,24.70
2022-12-03T03:56:13.074Z,20.88
2022-12-03T04:01:19.207Z,23.52
2022-12-03T04:06:22.289Z,20.85
2022-12-03T04:11:41.628Z,21.92
2022-12-03T04:16:45.745Z,20.50
2022-12-03T04:22:05.933Z,20.35
2022-12-03T04:27:27.417Z,20.92
2022-12-03T04:32:48.990Z,22.90
2022-12-03T04:37:51.734Z,20.13
2022-12-03T04:42:54.497Z,19.80
2022-12-03T04:47:58.652Z,19.45
2022-12-03T04:53:01.433Z,21.33
2022-12-03T04:58:04.199Z,20.20
2022-12-03T05:03:08.305Z,19.35
2022-12-03T05:08:11.138Z,21.55
2022-12-03T05:13:14.070Z,18.10
2022-12-03T05:18:18.542Z,19.02
2022-12-03T05:23:21.378Z,20.48
2022-12-03T05:28:24.300Z,22.60
2022-12-03T05:33:28.404Z,19.00
2022-12-03T05:38:31.226Z,18.80
2022-12-03T05:43:33.965Z,20.10
2022-12-03T05:48:38.055Z,19.60
2022-12-03T05:53:40.807Z,18.33
2022-12-03T05:58:43.591Z,22.83
2022-12-03T06:03:47.801Z,20.83
2022-12-03T06:08:50.762Z,23.45
2022-12-03T06:13:53.527Z,25.70
2022-12-03T06:18:57.902Z,26.38
2022-12-03T06:24:01.311Z,24.98
2022-12-03T06:29:04.162Z,26.63
2022-12-03T06:34:08.248Z,25.60
2022-12-03T06:39:11.920Z,21.77
2022-12-03T06:44:14.702Z,23.05
2022-12-03T06:49:18.879Z,25.77
2022-12-03T06:54:21.634Z,23.58
2022-12-03T06:59:24.368Z,25.23
2022-12-03T07:04:28.520Z,26.08
2022-12-03T07:09:31.273Z,27.38
2022-12-03T07:14:34.127Z,25.65
2022-12-03T07:19:38.261Z,22.55
2022-12-03T07:24:41.017Z,21.88
2022-12-03T07:29:43.780Z,24.05
2022-12-03T07:34:47.887Z,30.77
2022-12-03T07:39:52.330Z,18.45
2022-12-03T07:44:55.289Z,18.95
2022-12-03T07:49:59.656Z,20.67
2022-12-03T07:55:02.706Z,19.60
2022-12-03T08:00:07.041Z,21.45
2022-12-03T08:05:12.800Z,20.25
2022-12-03T08:10:15.592Z,20.85
2022-12-03T08:15:21.107Z,18.75
2022-12-03T08:20:27.499Z,23.13
2022-12-03T08:25:33.324Z,19.45
2022-12-03T08:30:36.071Z,23.02
2022-12-03T08:35:42.819Z,20.05
2022-12-03T08:40:49.106Z,19.88
2022-12-03T08:45:53.624Z,21.60
2022-12-03T08:50:59.819Z,18.85
2022-12-03T08:56:05.056Z,22.52
2022-12-03T09:01:31.973Z,19.70
2022-12-03T09:06:36.143Z,23.23
2022-12-03T09:11:39.158Z,21.40
2022-12-03T09:16:42.544Z,22.38
2022-12-03T09:21:46.671Z,23.20
2022-12-03T09:26:49.636Z,25.48
2022-12-03T09:31:52.577Z,24.00
2022-12-03T09:36:56.775Z,23.20
2022-12-03T09:41:59.676Z,23.70
2022-12-03T09:47:03.620Z,23.17
2022-12-03T09:52:09.122Z,24.85
2022-12-03T09:57:13.489Z,25.05
2022-12-03T10:02:22.309Z,23.75
2022-12-03T10:07:27.262Z,24.50
2022-12-03T10:12:30.240Z,23.40
2022-12-03T10:17:33.339Z,24.33
2022-12-03T10:22:37.707Z,24.63
2022-12-03T10:27:41.363Z,20.65
2022-12-03T10:32:46.655Z,21.52
2022-12-03T10:38:03.152Z,19.50
2022-12-03T10:43:25.716Z,20.92
2022-12-03T10:48:28.597Z,20.33
2022-12-03T10:53:36.419Z,19.60
2022-12-03T10:58:40.761Z,20.67
2022-12-03T11:03:43.599Z,21.60
2022-12-03T11:08:56.229Z,20.63
2022-12-03T11:14:01.480Z,21.05
2022-12-03T11:19:04.767Z,22.08
2022-12-03T11:24:20.485Z,19.88
2022-12-03T11:29:48.877Z,20.50
2022-12-03T11:34:51.805Z,21.70
2022-12-03T11:40:39.102Z,20.55
2022-12-03T11:45:42.488Z,22.15
2022-12-03T11:50:50.609Z,20.63
2022-12-03T11:56:08.813Z,21.10
2022-12-03T12:01:12.116Z,23.35
2022-12-03T12:06:16.639Z,20.48
2022-12-03T12:11:26.225Z,21.70
2022-12-03T12:16:45.757Z,21.05
2022-12-03T12:21:49.929Z,21.27
2022-12-03T12:26:54.168Z,24.35
2022-12-03T12:32:04.477Z,23.55
2022-12-03T12:37:12.676Z,24.20
2022-12-03T12:42:33.236Z,26.05
2022-12-03T12:47:37.266Z,25.00
2022-12-03T12:52:52.231Z,26.05
2022-12-03T12:58:01.004Z,25.23
2022-12-03T13:03:05.855Z,25.45
2022-12-03T13:08:22.103Z,28.77
2022-12-03T13:13:31.253Z,26.85
2022-12-03T13:18:39.977Z,27.83
2022-12-03T13:23:42.798Z,28.42
2022-12-03T13:28:46.927Z,28.30
2022-12-03T13:33:49.789Z,27.55
2022-12-03T13:38:54.288Z,28.48
2022-12-03T13:43:58.604Z,28.15
2022-12-03T13:49:02.212Z,28.42
2022-12-03T13:54:14.514Z,30.35
2022-12-03T13:59:25.820Z,29.67
2022-12-03T14:04:29.036Z,29.17
2022-12-03T14:09:32.088Z,29.63
2022-12-03T14:14:36.282Z,29.42
2022-12-03T14:19:39.156Z,29.48
2022-12-03T14:24:42.056Z,29.05
2022-12-03T14:29:46.264Z,30.45
2022-12-03T14:34:49.053Z,31.50
2022-12-03T14:39:52.396Z,32.53
2022-12-03T14:44:56.840Z,27.27
2022-12-03T14:49:59.671Z,27.85
2022-12-03T14:55:02.479Z,29.63
2022-12-03T15:00:08.070Z,30.75
2022-12-03T15:05:11.094Z,30.83
2022-12-03T15:10:13.879Z,32.25
2022-12-03T15:15:18.024Z,30.58
2022-12-03T15:20:20.809Z,30.73
2022-12-03T15:25:25.465Z,27.63
2022-12-03T15:30:30.795Z,29.95
2022-12-03T15:35:33.701Z,29.92
2022-12-03T15:40:38.092Z,31.67
2022-12-03T15:45:42.332Z,30.00
2022-12-03T15:50:45.226Z,28.58
2022-12-03T15:55:47.971Z,32.08
2022-12-03T16:00:52.152Z,29.20
2022-12-03T16:05:54.896Z,29.42
2022-12-03T16:10:57.694Z,30.95
2022-12-03T16:16:01.848Z,35.08
2022-12-03T16:21:04.712Z,32.53
2022-12-03T16:26:07.482Z,32.83
2022-12-03T16:31:11.754Z,31.65
2022-12-03T16:36:14.722Z,31.52
2022-12-03T16:41:17.543Z,33.20
2022-12-03T16:46:25.776Z,34.15
2022-12-03T16:51:30.320Z,32.38
2022-12-03T16:56:33.159Z,33.60
2022-12-03T17:01:37.398Z,32.40
2022-12-03T17:06:40.165Z,35.13
2022-12-03T17:11:43.020Z,35.78
2022-12-03T17:16:47.225Z,35.38
2022-12-03T17:21:50.035Z,36.72
2022-12-03T17:26:53.021Z,37.00
2022-12-03T17:31:57.249Z,37.45
2022-12-03T17:37:00.069Z,38.50
2022-12-03T17:42:02.824Z,37.20
2022-12-03T17:47:07.219Z,38.53
2022-12-03T17:52:10.137Z,40.53
2022-12-03T17:57:13.062Z,36.13
2022-12-03T18:02:17.387Z,34.22
2022-12-03T18:07:20.255Z,39.42
2022-12-03T18:12:23.031Z,39.55
2022-12-03T18:17:27.300Z,38.45
2022-12-03T18:22:30.140Z,38.45
2022-12-03T18:27:33.048Z,39.30
2022-12-03T18:32:37.172Z,38.22
2022-12-03T18:37:40.812Z,38.40
2022-12-03T18:42:43.594Z,39.75
2022-12-03T18:47:47.940Z,37.83
2022-12-03T18:52:50.777Z,39.38
2022-12-03T18:57:53.548Z,39.58
2022-12-03T19:03:05.190Z,36.38
2022-12-03T19:08:14.415Z,41.33
2022-12-03T19:13:17.242Z,37.45
2022-12-03T19:18:21.563Z,37.05
2022-12-03T19:23:24.569Z,40.00
2022-12-03T19:28:28.089Z,41.10
2022-12-03T19:33:33.091Z,38.47
2022-12-03T19:38:36.082Z,34.72
2022-12-03T19:43:39.612Z,38.72
2022-12-03T19:48:43.906Z,36.28
2022-12-03T19:53:47.010Z,39.33
2022-12-03T19:58:49.992Z,38.80
2022-12-03T20:03:56.872Z,38.15
2022-12-03T20:09:01.535Z,38.72
2022-12-03T20:14:07.102Z,38.35
2022-12-03T20:19:14.086Z,40.95
2022-12-03T20:24:19.240Z,36.80
2022-12-03T20:29:22.017Z,36.92
2022-12-03T20:34:26.122Z,37.25
2022-12-03T20:39:28.939Z,37.50
2022-12-03T20:44:31.701Z,34.88
2022-12-03T20:49:36.311Z,37.92
2022-12-03T20:54:39.153Z,38.50
2022-12-03T20:59:41.908Z,37.55
2022-12-03T21:04:46.023Z,37.08
2022-12-03T21:09:48.788Z,36.40
2022-12-03T21:14:51.579Z,36.40
2022-12-03T21:19:55.891Z,37.35
2022-12-03T21:24:58.764Z,39.00
2022-12-03T21:30:01.585Z,36.35
2022-12-03T21:35:06.325Z,36.00
2022-12-03T21:40:09.971Z,37.58
2022-12-03T21:45:12.798Z,33.83
2022-12-03T21:50:16.974Z,35.50
2022-12-03T21:55:19.764Z,34.70
2022-12-03T22:00:23.040Z,32.97
2022-12-03T22:05:27.170Z,33.47
2022-12-03T22:10:30.015Z,36.42
2022-12-03T22:15:32.843Z,36.10
2022-12-03T22:20:36.984Z,33.47
2022-12-03T22:25:39.763Z,33.95
2022-12-03T22:30:42.641Z,33.17
2022-12-03T22:35:55.657Z,32.92
2022-12-03T22:40:58.540Z,31.25
2022-12-03T22:46:01.419Z,33.38
2022-12-03T22:51:10.921Z,31.30
2022-12-03T22:56:13.736Z,32.17
2022-12-03T23:01:23.155Z,31.83
2022-12-03T23:06:28.153Z,36.40
2022-12-03T23:11:32.984Z,33.67
2022-12-03T23:16:35.840Z,32.28
2022-12-03T23:21:40.050Z,33.88
2022-12-03T23:26:42.869Z,29.13
2022-12-03T23:31:45.729Z,30.77
2022-12-03T23:36:49.974Z,30.55
2022-12-03T23:41:53.319Z,29.08
2022-12-03T23:46:56.112Z,29.50
2022-12-03T23:52:00.693Z,28.40
2022-12-03T23:57:03.424Z,27.20
